createdAt,value
2016-10-24T00:00:21.969Z,58.28
2016-10-24T00:01:21.949Z,58.12
2016-10-24T00:02:21.928Z,58.12
2016-10-24T00:03:21.915Z,57.92
2016-10-24T00:04:21.901Z,57.83
2016-10-24T00:05:21.881Z,57.6
2016-10-24T00:06:21.863Z,58.02
2016-10-24T00:07:21.848Z,57.83
2016-10-24T00:08:21.831Z,58.18
2016-10-24T00:09:21.834Z,58.12
2016-10-24T00:10:21.494Z,57.8
2016-10-24T00:11:21.787Z,57.9
2016-10-24T00:12:21.456Z,58.09
2016-10-24T00:13:21.785Z,58.12
2016-10-24T00:14:21.729Z,58.09
2016-10-24T00:15:21.725Z,57.99
2016-10-24T00:16:21.704Z,58.09
2016-10-24T00:17:21.682Z,57.9
2016-10-24T00:18:21.352Z,58.09
2016-10-24T00:19:21.652Z,58.12
2016-10-24T00:20:21.318Z,58.09
2016-10-24T00:21:21.618Z,57.99
2016-10-24T00:22:21.606Z,57.99
2016-10-24T00:23:21.584Z,57.9
2016-10-24T00:24:21.565Z,57.99
2016-10-24T00:25:21.555Z,57.99
2016-10-24T00:26:21.536Z,57.9
2016-10-24T00:27:21.523Z,57.9
2016-10-24T00:28:21.500Z,57.99
2016-10-24T00:29:21.497Z,57.99
2016-10-24T00:30:21.489Z,58.09
2016-10-24T00:31:21.454Z,58.02
2016-10-24T00:32:21.431Z,57.99
2016-10-24T00:33:21.423Z,57.9
2016-10-24T00:34:21.404Z,58.09
2016-10-24T00:35:21.387Z,58.09
2016-10-24T00:36:21.372Z,57.9
2016-10-24T00:37:21.353Z,57.9
2016-10-24T00:38:21.335Z,58.37
2016-10-24T00:39:21.324Z,57.99
2016-10-24T00:40:21.313Z,57.9
2016-10-24T00:41:20.976Z,57.9
2016-10-24T00:42:21.281Z,57.9
2016-10-24T00:43:21.255Z,57.9
2016-10-24T00:44:21.246Z,57.9
2016-10-24T00:45:21.223Z,57.99
2016-10-24T00:46:21.208Z,58.57
2016-10-24T00:47:21.193Z,58.67
2016-10-24T00:48:21.175Z,58.67
2016-10-24T00:49:21.168Z,58.76
2016-10-24T00:50:21.141Z,58.67
2016-10-24T00:51:21.131Z,58.57
2016-10-24T00:52:21.113Z,58.67
2016-10-24T00:53:21.095Z,58.57
2016-10-24T00:54:21.074Z,58.47
2016-10-24T00:55:21.061Z,58.57
2016-10-24T00:56:21.045Z,58.47
2016-10-24T00:57:21.022Z,58.67
2016-10-24T00:58:21.010Z,58.37
2016-10-24T00:59:20.995Z,58.57
2016-10-24T01:00:20.980Z,58.18
2016-10-24T01:01:20.647Z,58.67
2016-10-24T01:02:20.948Z,58.47
2016-10-24T01:03:20.927Z,58.37
2016-10-24T01:04:20.913Z,58.28
2016-10-24T01:05:20.895Z,58.57
2016-10-24T01:06:20.879Z,58.47
2016-10-24T01:07:20.864Z,58.57
2016-10-24T01:08:20.846Z,58.37
2016-10-24T01:09:20.837Z,58.47
2016-10-24T01:10:20.814Z,58.18
2016-10-24T01:11:20.794Z,58.37
2016-10-24T01:12:20.776Z,58.28
2016-10-24T01:13:20.773Z,58.47
2016-10-24T01:14:20.745Z,58.47
2016-10-24T01:15:20.414Z,58.47
2016-10-24T01:16:20.397Z,58.37
2016-10-24T01:17:20.695Z,58.37
2016-10-24T01:18:20.682Z,58.37
2016-10-24T01:19:20.663Z,58.47
2016-10-24T01:20:20.650Z,58.47
2016-10-24T01:21:20.631Z,58.57
2016-10-24T01:22:20.618Z,58.28
2016-10-24T01:23:20.600Z,58.37
2016-10-24T01:24:20.581Z,58.67
2016-10-24T01:25:20.558Z,58.28
2016-10-24T01:26:20.548Z,58.18
2016-10-24T01:27:20.529Z,58.28
2016-10-24T01:28:20.516Z,58.57
2016-10-24T01:29:20.502Z,58.67
2016-10-24T01:30:20.483Z,58.76
2016-10-24T01:31:20.472Z,58.57
2016-10-24T01:32:20.451Z,58.67
2016-10-24T01:33:20.435Z,58.47
2016-10-24T01:34:20.416Z,58.67
2016-10-24T01:35:20.399Z,58.67
2016-10-24T01:36:20.384Z,58.95
2016-10-24T01:37:20.365Z,58.57
2016-10-24T01:38:20.351Z,59.05
2016-10-24T01:39:20.334Z,58.67
2016-10-24T01:40:20.009Z,58.76
2016-10-24T01:41:20.297Z,58.67
2016-10-24T01:42:20.289Z,59.05
2016-10-24T01:43:20.269Z,58.95
2016-10-24T01:44:20.248Z,58.67
2016-10-24T01:45:20.237Z,58.67
2016-10-24T01:46:20.218Z,58.86
2016-10-24T01:47:19.888Z,58.57
2016-10-24T01:48:20.183Z,58.67
2016-10-24T01:49:20.164Z,58.67
2016-10-24T01:50:20.150Z,58.67
2016-10-24T01:51:20.140Z,58.76
2016-10-24T01:52:20.116Z,58.86
2016-10-24T01:53:19.789Z,59.34
2016-10-24T01:54:20.089Z,58.95
2016-10-24T01:55:20.067Z,59.24
2016-10-24T01:56:20.050Z,58.76
2016-10-24T01:57:20.034Z,58.95
2016-10-24T01:58:20.021Z,59.05
2016-10-24T01:59:20.003Z,58.76
2016-10-24T02:00:19.989Z,59.05
2016-10-24T02:01:20.005Z,58.76
2016-10-24T02:02:19.960Z,58.76
2016-10-24T02:03:19.937Z,59.34
2016-10-24T02:04:19.918Z,59.44
2016-10-24T02:05:19.588Z,58.95
2016-10-24T02:06:19.889Z,58.76
2016-10-24T02:07:19.872Z,58.95
2016-10-24T02:08:19.853Z,59.24
2016-10-24T02:09:19.844Z,58.86
2016-10-24T02:10:19.822Z,58.95
2016-10-24T02:11:19.493Z,59.15
2016-10-24T02:12:19.788Z,59.15
2016-10-24T02:13:19.771Z,59.24
2016-10-24T02:14:19.753Z,58.95
2016-10-24T02:15:19.739Z,59.72
2016-10-24T02:16:19.722Z,58.95
2016-10-24T02:17:19.718Z,59.15
2016-10-24T02:18:19.693Z,58.86
2016-10-24T02:19:19.676Z,58.95
2016-10-24T02:20:19.657Z,59.15
2016-10-24T02:21:19.642Z,58.86
2016-10-24T02:22:19.622Z,58.95
2016-10-24T02:23:19.607Z,59.15
2016-10-24T02:24:19.592Z,59.15
2016-10-24T02:25:19.572Z,59.05
2016-10-24T02:26:19.243Z,58.95
2016-10-24T02:27:19.536Z,58.86
2016-10-24T02:28:19.525Z,59.05
2016-10-24T02:29:19.508Z,59.72
2016-10-24T02:30:19.497Z,58.95
2016-10-24T02:31:19.482Z,59.44
2016-10-24T02:32:19.458Z,59.72
2016-10-24T02:33:19.445Z,58.86
2016-10-24T02:34:19.426Z,58.95
2016-10-24T02:35:19.409Z,59.15
2016-10-24T02:36:19.394Z,59.34
2016-10-24T02:37:19.373Z,58.86
2016-10-24T02:38:19.368Z,59.44
2016-10-24T02:39:19.029Z,59.34
2016-10-24T02:40:19.333Z,59.53
2016-10-24T02:41:19.317Z,59.53
2016-10-24T02:42:19.293Z,59.24
2016-10-24T02:43:19.278Z,59.34
2016-10-24T02:44:18.944Z,59.24
2016-10-24T02:45:19.246Z,59.44
2016-10-24T02:46:19.224Z,59.41
2016-10-24T02:47:18.895Z,59.15
2016-10-24T02:48:19.196Z,59.41
2016-10-24T02:49:18.865Z,59.44
2016-10-24T02:50:19.158Z,59.53
2016-10-24T02:51:19.141Z,59.5
2016-10-24T02:52:19.129Z,59.22
2016-10-24T02:53:19.110Z,59.44
2016-10-24T02:54:19.099Z,59.05
2016-10-24T02:55:18.766Z,59.24
2016-10-24T02:56:19.069Z,59.34
2016-10-24T02:57:19.046Z,59.24
2016-10-24T02:58:19.036Z,59.34
2016-10-24T02:59:19.013Z,59.53
2016-10-24T03:00:18.680Z,59.5
2016-10-24T03:01:18.979Z,59.69
2016-10-24T03:02:18.962Z,59.12
2016-10-24T03:03:18.947Z,59.22
2016-10-24T03:04:18.929Z,59.12
2016-10-24T03:05:18.916Z,59.41
2016-10-24T03:06:18.899Z,59.6
2016-10-24T03:07:18.878Z,59.69
2016-10-24T03:08:18.863Z,59.12
2016-10-24T03:09:18.533Z,59.02
2016-10-24T03:10:18.836Z,59.15
2016-10-24T03:11:18.813Z,59.12
2016-10-24T03:12:18.800Z,59.41
2016-10-24T03:13:18.781Z,59.6
2016-10-24T03:14:18.768Z,59.22
2016-10-24T03:15:18.746Z,59.6
2016-10-24T03:16:18.727Z,59.5
2016-10-24T03:17:18.724Z,59.41
2016-10-24T03:18:18.695Z,59.5
2016-10-24T03:19:18.678Z,59.22
2016-10-24T03:20:18.662Z,59.22
2016-10-24T03:21:18.651Z,59.41
2016-10-24T03:22:18.632Z,59.41
2016-10-24T03:23:18.617Z,59.31
2016-10-24T03:24:18.284Z,59.5
2016-10-24T03:25:18.589Z,59.22
2016-10-24T03:26:18.563Z,59.69
2016-10-24T03:27:18.546Z,59.12
2016-10-24T03:28:18.213Z,59.12
2016-10-24T03:29:18.200Z,59.12
2016-10-24T03:30:18.501Z,59.12
2016-10-24T03:31:18.482Z,59.02
2016-10-24T03:32:18.461Z,59.02
2016-10-24T03:33:18.451Z,59.02
2016-10-24T03:34:18.436Z,59.12
2016-10-24T03:35:18.417Z,59.02
2016-10-24T03:36:18.402Z,59.31
2016-10-24T03:37:18.379Z,59.31
2016-10-24T03:38:18.363Z,59.22
2016-10-24T03:39:18.354Z,59.31
2016-10-24T03:40:18.333Z,59.22
2016-10-24T03:41:18.312Z,59.41
2016-10-24T03:42:18.299Z,59.12
2016-10-24T03:43:18.297Z,59.41
2016-10-24T03:44:18.268Z,59.5
2016-10-24T03:45:18.251Z,59.12
2016-10-24T03:46:18.234Z,59.5
2016-10-24T03:47:17.905Z,59.5
2016-10-24T03:48:18.200Z,59.5
2016-10-24T03:49:18.182Z,59.31
2016-10-24T03:50:18.165Z,59.12
2016-10-24T03:51:18.152Z,59.22
2016-10-24T03:52:18.133Z,59.22
2016-10-24T03:53:18.115Z,59.41
2016-10-24T03:54:18.096Z,59.41
2016-10-24T03:55:18.083Z,59.41
2016-10-24T03:56:18.062Z,59.41
2016-10-24T03:57:18.052Z,59.31
2016-10-24T03:58:18.032Z,59.41
2016-10-24T03:59:18.010Z,59.31
2016-10-24T04:00:17.999Z,59.41
2016-10-24T04:01:17.986Z,59.12
2016-10-24T04:02:17.648Z,59.41
2016-10-24T04:03:17.950Z,59.12
2016-10-24T04:04:17.935Z,59.6
2016-10-24T04:05:17.602Z,59.22
2016-10-24T04:06:17.906Z,59.5
2016-10-24T04:07:17.883Z,59.24
2016-10-24T04:08:17.869Z,59.15
2016-10-24T04:09:17.852Z,59.05
2016-10-24T04:10:17.833Z,58.67
2016-10-24T04:11:17.816Z,59.05
2016-10-24T04:12:17.799Z,58.57
2016-10-24T04:13:17.791Z,58.47
2016-10-24T04:14:17.767Z,58.76
2016-10-24T04:15:17.755Z,57.99
2016-10-24T04:16:17.736Z,58.22
2016-10-24T04:17:17.724Z,58.5
2016-10-24T04:18:17.699Z,58.31
2016-10-24T04:19:17.686Z,57.83
2016-10-24T04:20:17.667Z,57.83
2016-10-24T04:21:17.648Z,57.73
2016-10-24T04:22:17.634Z,58.12
2016-10-24T04:23:17.616Z,57.92
2016-10-24T04:24:17.605Z,58.12
2016-10-24T04:25:17.269Z,57.57
2016-10-24T04:26:17.304Z,57.83
2016-10-24T04:27:17.555Z,57.86
2016-10-24T04:28:17.220Z,57.86
2016-10-24T04:29:17.520Z,58.15
2016-10-24T04:30:17.503Z,58.34
2016-10-24T04:31:17.492Z,57.76
2016-10-24T04:32:17.155Z,57.86
2016-10-24T04:33:17.144Z,57.83
2016-10-24T04:34:17.440Z,57.86
2016-10-24T04:35:17.419Z,58.22
2016-10-24T04:36:17.406Z,57.76
2016-10-24T04:37:17.393Z,57.83
2016-10-24T04:38:17.384Z,57.95
2016-10-24T04:39:17.354Z,58.15
2016-10-24T04:40:17.350Z,57.83
2016-10-24T04:41:17.330Z,57.73
2016-10-24T04:42:17.306Z,57.76
2016-10-24T04:43:17.286Z,58.05
2016-10-24T04:44:17.277Z,58.15
2016-10-24T04:45:17.260Z,58.05
2016-10-24T04:46:17.232Z,57.67
2016-10-24T04:47:17.221Z,57.95
2016-10-24T04:48:17.206Z,57.47
2016-10-24T04:49:17.193Z,57.67
2016-10-24T04:50:17.175Z,57.76
2016-10-24T04:51:17.156Z,57.57
2016-10-24T04:52:17.138Z,58.05
2016-10-24T04:53:17.132Z,57.67
2016-10-24T04:54:17.140Z,58.05
2016-10-24T04:55:17.090Z,57.86
2016-10-24T04:56:16.765Z,57.57
2016-10-24T04:57:17.064Z,57.95
2016-10-24T04:58:17.041Z,57.86
2016-10-24T04:59:17.021Z,58.24
2016-10-24T05:00:17.012Z,57.76
2016-10-24T05:01:16.992Z,57.67
2016-10-24T05:02:16.977Z,57.47
2016-10-24T05:03:16.958Z,57.28
2016-10-24T05:04:16.629Z,57.37
2016-10-24T05:05:16.929Z,57.47
2016-10-24T05:06:16.913Z,57.37
2016-10-24T05:07:16.895Z,57.67
2016-10-24T05:08:16.882Z,57.57
2016-10-24T05:09:16.540Z,57.5
2016-10-24T05:10:16.849Z,57.57
2016-10-24T05:11:16.838Z,57.76
2016-10-24T05:12:16.812Z,56.54
2016-10-24T05:13:16.800Z,55.65
2016-10-24T05:14:16.780Z,55.45
2016-10-24T05:15:16.451Z,54.39
2016-10-24T05:16:16.772Z,54.58
2016-10-24T05:17:16.735Z,54.49
2016-10-24T05:18:16.719Z,55.07
2016-10-24T05:19:16.698Z,55.35
2016-10-24T05:20:16.683Z,55.74
2016-10-24T05:21:16.672Z,56.03
2016-10-24T05:22:16.650Z,55.93
2016-10-24T05:23:16.321Z,55.57
2016-10-24T05:24:16.620Z,56.12
2016-10-24T05:25:16.288Z,56.03
2016-10-24T05:26:16.589Z,56.03
2016-10-24T05:27:16.575Z,56.41
2016-10-24T05:28:16.556Z,55.83
2016-10-24T05:29:16.536Z,56.54
2016-10-24T05:30:16.524Z,56.15
2016-10-24T05:31:16.505Z,56.44
2016-10-24T05:32:16.492Z,56.15
2016-10-24T05:33:16.497Z,56.05
2016-10-24T05:34:16.452Z,55.87
2016-10-24T05:35:16.131Z,55.77
2016-10-24T05:36:16.111Z,56.35
2016-10-24T05:37:16.094Z,56.05
2016-10-24T05:38:16.079Z,55.29
2016-10-24T05:39:16.378Z,55.67
2016-10-24T05:40:16.362Z,55.96
2016-10-24T05:41:16.349Z,56.15
2016-10-24T05:42:16.326Z,56.54
2016-10-24T05:43:16.316Z,56.15
2016-10-24T05:44:16.297Z,56.25
2016-10-24T05:45:16.280Z,56.44
2016-10-24T05:46:15.944Z,56.25
2016-10-24T05:47:16.248Z,56.35
2016-10-24T05:48:16.237Z,56.44
2016-10-24T05:49:16.217Z,56.54
2016-10-24T05:50:16.204Z,56.44
2016-10-24T05:51:16.180Z,56.44
2016-10-24T05:52:16.173Z,56.25
2016-10-24T05:53:16.166Z,56.44
2016-10-24T05:54:16.161Z,56.44
2016-10-24T05:55:16.121Z,56.35
2016-10-24T05:56:16.107Z,56.35
2016-10-24T05:57:16.089Z,56.25
2016-10-24T05:58:16.073Z,56.44
2016-10-24T05:59:16.055Z,56.44
2016-10-24T06:00:16.075Z,56.54
2016-10-24T06:01:16.028Z,56.35
2016-10-24T06:02:16.005Z,56.35
2016-10-24T06:03:15.992Z,56.25
2016-10-24T06:04:15.975Z,56.54
2016-10-24T06:05:15.958Z,56.54
2016-10-24T06:06:15.946Z,56.54
2016-10-24T06:07:15.927Z,56.35
2016-10-24T06:08:15.910Z,56.25
2016-10-24T06:09:15.899Z,56.35
2016-10-24T06:10:15.877Z,56.25
2016-10-24T06:11:15.866Z,56.54
2016-10-24T06:12:15.847Z,56.35
2016-10-24T06:13:15.836Z,56.35
2016-10-24T06:14:15.809Z,56.15
2016-10-24T06:15:15.798Z,56.25
2016-10-24T06:16:15.782Z,56.35
2016-10-24T06:17:15.767Z,56.44
2016-10-24T06:18:15.756Z,55.96
2016-10-24T06:19:15.732Z,55.96
2016-10-24T06:20:15.407Z,55.67
2016-10-24T06:21:15.702Z,55.87
2016-10-24T06:22:15.701Z,56.05
2016-10-24T06:23:15.672Z,56.35
2016-10-24T06:24:15.661Z,56.35
2016-10-24T06:25:15.639Z,56.05
2016-10-24T06:26:15.308Z,55.67
2016-10-24T06:27:15.607Z,55.67
2016-10-24T06:28:15.278Z,55.57
2016-10-24T06:29:15.581Z,55.48
2016-10-24T06:30:15.557Z,55.7
2016-10-24T06:31:15.546Z,55.87
2016-10-24T06:32:15.525Z,55.57
2016-10-24T06:33:15.516Z,55.87
2016-10-24T06:34:15.504Z,56.15
2016-10-24T06:35:15.479Z,56.05
2016-10-24T06:36:15.472Z,56.05
2016-10-24T06:37:15.451Z,56.25
2016-10-24T06:38:15.437Z,55.96
2016-10-24T06:39:15.420Z,55.57
2016-10-24T06:40:15.089Z,55.48
2016-10-24T06:41:15.395Z,56.05
2016-10-24T06:42:15.367Z,56.15
2016-10-24T06:43:15.035Z,56.25
2016-10-24T06:44:15.338Z,56.35
2016-10-24T06:45:15.006Z,56.44
2016-10-24T06:46:14.998Z,56.63
2016-10-24T06:47:15.289Z,56.82
2016-10-24T06:48:15.278Z,57.02
2016-10-24T06:49:15.260Z,56.92
2016-10-24T06:50:15.245Z,57.02
2016-10-24T06:51:15.225Z,56.82
2016-10-24T06:52:15.212Z,57.02
2016-10-24T06:53:15.198Z,57.02
2016-10-24T06:54:15.185Z,56.92
2016-10-24T06:55:15.167Z,56.82
2016-10-24T06:56:15.150Z,56.92
2016-10-24T06:57:15.133Z,56.82
2016-10-24T06:58:15.143Z,56.92
2016-10-24T06:59:15.098Z,56.82
2016-10-24T07:00:15.085Z,56.63
2016-10-24T07:01:15.076Z,56.63
2016-10-24T07:02:15.049Z,56.44
2016-10-24T07:03:15.037Z,57.02
2016-10-24T07:04:15.022Z,56.63
2016-10-24T07:05:15.001Z,56.63
2016-10-24T07:06:14.986Z,56.44
2016-10-24T07:07:14.975Z,56.35
2016-10-24T07:08:14.953Z,56.25
2016-10-24T07:09:14.952Z,56.63
2016-10-24T07:10:14.925Z,56.82
2016-10-24T07:11:14.920Z,56.82
2016-10-24T07:12:14.891Z,57.02
2016-10-24T07:13:14.880Z,57.02
2016-10-24T07:14:14.546Z,56.54
2016-10-24T07:15:14.845Z,57.02
2016-10-24T07:16:14.832Z,56.54
2016-10-24T07:17:14.814Z,56.73
2016-10-24T07:18:14.798Z,56.54
2016-10-24T07:19:14.793Z,56.82
2016-10-24T07:20:14.767Z,56.54
2016-10-24T07:21:14.433Z,56.63
2016-10-24T07:22:14.416Z,56.82
2016-10-24T07:23:14.717Z,56.63
2016-10-24T07:24:14.712Z,57.02
2016-10-24T07:25:14.686Z,56.82
2016-10-24T07:26:14.686Z,56.82
2016-10-24T07:27:14.657Z,56.92
2016-10-24T07:28:14.644Z,56.92
2016-10-24T07:29:14.622Z,56.82
2016-10-24T07:30:14.611Z,56.82
2016-10-24T07:31:14.586Z,57.02
2016-10-24T07:32:14.572Z,56.82
2016-10-24T07:33:14.559Z,56.82
2016-10-24T07:34:14.542Z,56.82
2016-10-24T07:35:14.531Z,56.82
2016-10-24T07:36:14.511Z,56.63
2016-10-24T07:37:14.182Z,56.54
2016-10-24T07:38:14.164Z,56.54
2016-10-24T07:39:14.465Z,56.25
2016-10-24T07:40:14.468Z,56.44
2016-10-24T07:41:14.433Z,56.44
2016-10-24T07:42:14.419Z,56.35
2016-10-24T07:43:14.404Z,56.35
2016-10-24T07:44:14.069Z,56.35
2016-10-24T07:45:14.369Z,56.44
2016-10-24T07:46:14.353Z,56.35
2016-10-24T07:47:14.339Z,56.35
2016-10-24T07:48:14.322Z,56.54
2016-10-24T07:49:14.309Z,56.35
2016-10-24T07:50:14.301Z,56.44
2016-10-24T07:51:14.272Z,56.25
2016-10-24T07:52:14.262Z,56.35
2016-10-24T07:53:14.239Z,56.44
2016-10-24T07:54:14.222Z,56.44
2016-10-24T07:55:13.894Z,56.44
2016-10-24T07:56:14.201Z,56.44
2016-10-24T07:57:14.176Z,56.35
2016-10-24T07:58:14.167Z,56.35
2016-10-24T07:59:14.146Z,56.44
2016-10-24T08:00:14.136Z,56.15
2016-10-24T08:01:14.114Z,56.25
2016-10-24T08:02:14.094Z,56.54
2016-10-24T08:03:14.081Z,56.35
2016-10-24T08:04:13.752Z,56.54
2016-10-24T08:05:14.048Z,56.35
2016-10-24T08:06:14.040Z,56.35
2016-10-24T08:07:14.018Z,56.35
2016-10-24T08:08:14.003Z,56.25
2016-10-24T08:09:13.987Z,56.35
2016-10-24T08:10:13.972Z,56.35
2016-10-24T08:11:13.955Z,56.44
2016-10-24T08:12:13.940Z,56.35
2016-10-24T08:13:13.973Z,56.44
2016-10-24T08:14:13.909Z,56.44
2016-10-24T08:15:13.896Z,56.25
2016-10-24T08:16:13.561Z,56.25
2016-10-24T08:17:13.860Z,56.54
2016-10-24T08:18:13.528Z,56.54
2016-10-24T08:19:13.512Z,56.35
2016-10-24T08:20:13.816Z,56.05
2016-10-24T08:21:13.793Z,56.35
2016-10-24T08:22:13.779Z,56.15
2016-10-24T08:23:13.757Z,56.15
2016-10-24T08:24:13.749Z,56.44
2016-10-24T08:25:13.741Z,56.35
2016-10-24T08:26:13.719Z,56.35
2016-10-24T08:27:13.421Z,55.87
2016-10-24T08:28:13.686Z,55.96
2016-10-24T08:29:13.671Z,55.96
2016-10-24T08:30:13.656Z,56.05
2016-10-24T08:31:13.640Z,56.05
2016-10-24T08:32:13.623Z,56.15
2016-10-24T08:33:13.608Z,55.87
2016-10-24T08:34:13.595Z,55.96
2016-10-24T08:35:13.580Z,56.35
2016-10-24T08:36:13.559Z,56.35
2016-10-24T08:37:13.539Z,56.05
2016-10-24T08:38:13.208Z,55.87
2016-10-24T08:39:13.514Z,56.05
2016-10-24T08:40:13.499Z,55.67
2016-10-24T08:41:13.481Z,56.05
2016-10-24T08:42:13.469Z,56.15
2016-10-24T08:43:13.446Z,56.35
2016-10-24T08:44:13.432Z,56.35
2016-10-24T08:45:13.100Z,56.25
2016-10-24T08:46:13.406Z,56.35
2016-10-24T08:47:13.387Z,56.35
2016-10-24T08:48:13.376Z,56.05
2016-10-24T08:49:13.353Z,56.35
2016-10-24T08:50:13.347Z,56.35
2016-10-24T08:51:13.323Z,56.05
2016-10-24T08:52:13.311Z,56.05
2016-10-24T08:53:12.978Z,55.96
2016-10-24T08:54:12.959Z,56.05
2016-10-24T08:55:13.256Z,55.96
2016-10-24T08:56:13.241Z,56.15
2016-10-24T08:57:13.225Z,55.77
2016-10-24T08:58:13.234Z,55.87
2016-10-24T08:59:13.198Z,56.25
2016-10-24T09:00:13.177Z,55.67
2016-10-24T09:01:13.159Z,56.15
2016-10-24T09:02:12.828Z,56.05
2016-10-24T09:03:13.136Z,55.48
2016-10-24T09:04:13.116Z,55.67
2016-10-24T09:05:13.115Z,55.48
2016-10-24T09:06:13.087Z,55.67
2016-10-24T09:07:13.072Z,55.77
2016-10-24T09:08:12.737Z,55.67
2016-10-24T09:09:12.720Z,55.48
2016-10-24T09:10:13.020Z,55.87
2016-10-24T09:11:13.002Z,55.87
2016-10-24T09:12:12.991Z,55.48
2016-10-24T09:13:12.970Z,55.57
2016-10-24T09:14:12.956Z,55.57
2016-10-24T09:15:12.941Z,55.48
2016-10-24T09:16:12.923Z,55.67
2016-10-24T09:17:12.905Z,55.96
2016-10-24T09:18:12.893Z,55.77
2016-10-24T09:19:12.895Z,56.15
2016-10-24T09:20:12.889Z,55.57
2016-10-24T09:21:12.851Z,55.77
2016-10-24T09:22:12.826Z,55.67
2016-10-24T09:23:12.831Z,55.87
2016-10-24T09:24:12.490Z,55.77
2016-10-24T09:25:12.785Z,55.67
2016-10-24T09:26:12.771Z,55.57
2016-10-24T09:27:12.750Z,55.48
2016-10-24T09:28:12.735Z,55.77
2016-10-24T09:29:12.406Z,55.77
2016-10-24T09:30:12.700Z,55.57
2016-10-24T09:31:12.686Z,55.67
2016-10-24T09:32:12.674Z,55.67
2016-10-24T09:33:12.657Z,55.57
2016-10-24T09:34:12.643Z,55.87
2016-10-24T09:35:12.305Z,55.77
2016-10-24T09:36:12.608Z,55.77
2016-10-24T09:37:12.590Z,55.77
2016-10-24T09:38:12.578Z,55.48
2016-10-24T09:39:12.559Z,55.67
2016-10-24T09:40:12.542Z,55.67
2016-10-24T09:41:12.215Z,55.77
2016-10-24T09:42:12.506Z,55.96
2016-10-24T09:43:12.179Z,56.05
2016-10-24T09:44:12.480Z,55.87
2016-10-24T09:45:12.155Z,55.57
2016-10-24T09:46:12.451Z,55.77
2016-10-24T09:47:12.434Z,55.77
2016-10-24T09:48:12.415Z,55.77
2016-10-24T09:49:12.088Z,55.67
2016-10-24T09:50:12.385Z,55.67
2016-10-24T09:51:12.053Z,55.48
2016-10-24T09:52:12.350Z,55.87
2016-10-24T09:53:12.348Z,55.67
2016-10-24T09:54:12.325Z,55.67
2016-10-24T09:55:11.999Z,55.87
2016-10-24T09:56:12.294Z,55.87
2016-10-24T09:57:12.273Z,55.87
2016-10-24T09:58:12.253Z,55.77
2016-10-24T09:59:12.244Z,55.57
2016-10-24T10:00:11.912Z,55.87
2016-10-24T10:01:12.205Z,55.67
2016-10-24T10:02:12.191Z,55.57
2016-10-24T10:03:12.180Z,55.67
2016-10-24T10:04:12.160Z,55.48
2016-10-24T10:05:12.142Z,55.77
2016-10-24T10:06:12.124Z,55.57
2016-10-24T10:07:12.117Z,55.67
2016-10-24T10:08:12.101Z,55.57
2016-10-24T10:09:12.080Z,55.77
2016-10-24T10:10:12.074Z,55.77
2016-10-24T10:11:12.048Z,56.05
2016-10-24T10:12:12.043Z,55.96
2016-10-24T10:13:12.029Z,55.67
2016-10-24T10:14:12.002Z,55.87
2016-10-24T10:15:11.666Z,55.96
2016-10-24T10:16:11.969Z,55.77
2016-10-24T10:17:11.653Z,55.96
2016-10-24T10:18:11.948Z,55.96
2016-10-24T10:19:11.618Z,55.67
2016-10-24T10:20:11.913Z,55.87
2016-10-24T10:21:11.576Z,56.05
2016-10-24T10:22:11.875Z,55.67
2016-10-24T10:23:11.863Z,55.96
2016-10-24T10:24:11.845Z,55.77
2016-10-24T10:25:11.827Z,55.77
2016-10-24T10:26:11.492Z,56.05
2016-10-24T10:27:11.803Z,55.67
2016-10-24T10:28:11.783Z,55.67
2016-10-24T10:29:11.768Z,55.67
2016-10-24T10:30:11.441Z,56.25
2016-10-24T10:31:11.419Z,55.96
2016-10-24T10:32:11.717Z,55.96
2016-10-24T10:33:11.699Z,55.77
2016-10-24T10:34:11.678Z,55.77
2016-10-24T10:35:11.666Z,56.05
2016-10-24T10:36:11.655Z,55.96
2016-10-24T10:37:11.637Z,55.87
2016-10-24T10:38:11.616Z,55.96
2016-10-24T10:39:11.607Z,55.67
2016-10-24T10:40:11.618Z,55.96
2016-10-24T10:41:11.574Z,55.96
2016-10-24T10:42:11.570Z,55.77
2016-10-24T10:43:11.536Z,56.15
2016-10-24T10:44:11.527Z,56.35
2016-10-24T10:45:11.512Z,56.15
2016-10-24T10:46:11.491Z,55.48
2016-10-24T10:47:11.481Z,55.67
2016-10-24T10:48:11.466Z,55.67
2016-10-24T10:49:11.449Z,55.67
2016-10-24T10:50:11.437Z,55.67
2016-10-24T10:51:11.414Z,55.48
2016-10-24T10:52:11.401Z,55.67
2016-10-24T10:53:11.066Z,55.48
2016-10-24T10:54:11.364Z,55.77
2016-10-24T10:55:11.349Z,55.67
2016-10-24T10:56:11.334Z,55.87
2016-10-24T10:57:11.010Z,56.35
2016-10-24T10:58:10.988Z,55.67
2016-10-24T10:59:11.294Z,56.15
2016-10-24T11:00:11.273Z,55.77
2016-10-24T11:01:11.254Z,55.77
2016-10-24T11:02:11.243Z,55.77
2016-10-24T11:03:11.226Z,55.67
2016-10-24T11:04:11.210Z,56.25
2016-10-24T11:05:11.191Z,55.77
2016-10-24T11:06:11.180Z,56.05
2016-10-24T11:07:11.175Z,55.67
2016-10-24T11:08:11.147Z,55.77
2016-10-24T11:09:10.814Z,55.48
2016-10-24T11:10:10.803Z,55.67
2016-10-24T11:11:11.098Z,55.67
2016-10-24T11:12:11.092Z,55.48
2016-10-24T11:13:11.065Z,55.19
2016-10-24T11:14:10.736Z,55.77
2016-10-24T11:15:11.037Z,55.57
2016-10-24T11:16:10.706Z,55.87
2016-10-24T11:17:11.006Z,55.38
2016-10-24T11:18:10.989Z,55.67
2016-10-24T11:19:10.971Z,55.6
2016-10-24T11:20:10.961Z,55.67
2016-10-24T11:21:10.623Z,55.77
2016-10-24T11:22:10.610Z,55.87
2016-10-24T11:23:10.907Z,55.77
2016-10-24T11:24:10.578Z,55.77
2016-10-24T11:25:10.873Z,56.05
2016-10-24T11:26:10.865Z,56.05
2016-10-24T11:27:10.849Z,55.67
2016-10-24T11:28:10.520Z,55.67
2016-10-24T11:29:10.815Z,55.96
2016-10-24T11:30:10.799Z,55.19
2016-10-24T11:31:10.467Z,55.87
2016-10-24T11:32:10.763Z,55.96
2016-10-24T11:33:10.764Z,55.77
2016-10-24T11:34:10.735Z,55.67
2016-10-24T11:35:10.723Z,55.87
2016-10-24T11:36:10.387Z,55.67
2016-10-24T11:37:10.689Z,55.87
2016-10-24T11:38:10.672Z,55.87
2016-10-24T11:39:10.663Z,55.77
2016-10-24T11:40:10.643Z,55.38
2016-10-24T11:41:10.625Z,55.29
2016-10-24T11:42:10.607Z,55.67
2016-10-24T11:43:10.590Z,55.96
2016-10-24T11:44:10.573Z,55.67
2016-10-24T11:45:10.564Z,55.19
2016-10-24T11:46:10.545Z,55.67
2016-10-24T11:47:10.536Z,55.57
2016-10-24T11:48:10.526Z,55.38
2016-10-24T11:49:10.497Z,55.29
2016-10-24T11:50:10.484Z,55.29
2016-10-24T11:51:10.463Z,55.48
2016-10-24T11:52:10.474Z,55.57
2016-10-24T11:53:10.466Z,55.96
2016-10-24T11:54:10.427Z,55.77
2016-10-24T11:55:10.406Z,55.67
2016-10-24T11:56:10.390Z,55.67
2016-10-24T11:57:10.062Z,55.67
2016-10-24T11:58:10.362Z,55.77
2016-10-24T11:59:10.341Z,55.67
2016-10-24T12:00:10.013Z,55.77
2016-10-24T12:01:10.311Z,55.67
2016-10-24T12:02:10.297Z,56.05
2016-10-24T12:03:10.278Z,55.38
2016-10-24T12:04:09.947Z,55.77
2016-10-24T12:05:09.932Z,55.57
2016-10-24T12:06:10.227Z,55.67
2016-10-24T12:07:09.902Z,55.87
2016-10-24T12:08:10.200Z,55.87
2016-10-24T12:09:10.184Z,55.57
2016-10-24T12:10:09.851Z,55.77
2016-10-24T12:11:10.157Z,55.67
2016-10-24T12:12:10.160Z,55.77
2016-10-24T12:13:10.125Z,55.67
2016-10-24T12:14:10.104Z,55.77
2016-10-24T12:15:09.778Z,55.48
2016-10-24T12:16:09.755Z,55.67
2016-10-24T12:17:09.742Z,56.05
2016-10-24T12:18:10.045Z,56.05
2016-10-24T12:19:10.025Z,56.05
2016-10-24T12:20:10.012Z,55.48
2016-10-24T12:21:09.991Z,55.67
2016-10-24T12:22:09.989Z,55.87
2016-10-24T12:23:09.649Z,55.87
2016-10-24T12:24:09.947Z,55.77
2016-10-24T12:25:09.619Z,55.67
2016-10-24T12:26:09.915Z,55.77
2016-10-24T12:27:09.896Z,55.67
2016-10-24T12:28:09.880Z,55.51
2016-10-24T12:29:09.866Z,55.77
2016-10-24T12:30:09.853Z,55.41
2016-10-24T12:31:09.839Z,55.48
2016-10-24T12:32:09.820Z,55.41
2016-10-24T12:33:09.810Z,55.51
2016-10-24T12:34:09.795Z,55.7
2016-10-24T12:35:09.777Z,55.67
2016-10-24T12:36:09.757Z,55.67
2016-10-24T12:37:09.429Z,55.48
2016-10-24T12:38:09.419Z,55.87
2016-10-24T12:39:09.711Z,55.87
2016-10-24T12:40:09.698Z,55.87
2016-10-24T12:41:09.680Z,55.77
2016-10-24T12:42:09.661Z,55.87
2016-10-24T12:43:09.334Z,55.96
2016-10-24T12:44:09.635Z,55.87
2016-10-24T12:45:09.612Z,55.96
2016-10-24T12:46:09.288Z,55.87
2016-10-24T12:47:09.592Z,55.48
2016-10-24T12:48:09.568Z,56.05
2016-10-24T12:49:09.551Z,55.87
2016-10-24T12:50:09.543Z,55.67
2016-10-24T12:51:09.211Z,55.57
2016-10-24T12:52:09.510Z,55.57
2016-10-24T12:53:09.493Z,55.57